sensor_id;sensor_type;location;lat;lon;timestamp;temperature;humidity
69895;DHT22;57172;52.034;5.090;2022-12-29T00:00:54;11.70;80.20
69895;DHT22;57172;52.034;5.090;2022-12-29T00:03:21;11.80;79.50
69895;DHT22;57172;52.034;5.090;2022-12-29T00:05:54;11.80;79.30
69895;DHT22;57172;52.034;5.090;2022-12-29T00:08:22;11.80;79.20
69895;DHT22;57172;52.034;5.090;2022-12-29T00:11:12;11.80;79.20
69895;DHT22;57172;52.034;5.090;2022-12-29T00:13:39;11.90;78.90
69895;DHT22;57172;52.034;5.090;2022-12-29T00:16:25;11.90;78.80
69895;DHT22;57172;52.034;5.090;2022-12-29T00:18:53;11.90;78.20
69895;DHT22;57172;52.034;5.090;2022-12-29T00:21:21;11.90;78.30
69895;DHT22;57172;52.034;5.090;2022-12-29T00:24:12;11.90;78.40
69895;DHT22;57172;52.034;5.090;2022-12-29T00:26:59;12.00;78.20
69895;DHT22;57172;52.034;5.090;2022-12-29T00:29:52;12.00;78.50
69895;DHT22;57172;52.034;5.090;2022-12-29T00:32:38;12.00;78.20
69895;DHT22;57172;52.034;5.090;2022-12-29T00:35:40;12.00;78.20
69895;DHT22;57172;52.034;5.090;2022-12-29T00:38:08;12.00;78.10
69895;DHT22;57172;52.034;5.090;2022-12-29T00:40:56;12.00;77.90
69895;DHT22;57172;52.034;5.090;2022-12-29T00:43:41;12.00;77.80
69895;DHT22;57172;52.034;5.090;2022-12-29T00:46:28;12.00;77.50
69895;DHT22;57172;52.034;5.090;2022-12-29T00:48:55;12.10;77.50
69895;DHT22;57172;52.034;5.090;2022-12-29T00:51:40;12.10;77.50
69895;DHT22;57172;52.034;5.090;2022-12-29T00:54:07;12.10;77.20
69895;DHT22;57172;52.034;5.090;2022-12-29T00:56:35;12.00;77.20
69895;DHT22;57172;52.034;5.090;2022-12-29T00:59:03;12.10;77.30
69895;DHT22;57172;52.034;5.090;2022-12-29T01:01:31;12.00;77.30
69895;DHT22;57172;52.034;5.090;2022-12-29T01:03:59;12.10;77.30
69895;DHT22;57172;52.034;5.090;2022-12-29T01:06:30;12.00;77.30
69895;DHT22;57172;52.034;5.090;2022-12-29T01:08:57;12.00;77.70
69895;DHT22;57172;52.034;5.090;2022-12-29T01:11:43;11.80;78.10
69895;DHT22;57172;52.034;5.090;2022-12-29T01:14:09;11.70;78.90
69895;DHT22;57172;52.034;5.090;2022-12-29T01:16:36;11.50;79.80
69895;DHT22;57172;52.034;5.090;2022-12-29T01:19:04;11.40;80.30
69895;DHT22;57172;52.034;5.090;2022-12-29T01:21:30;11.30;81.20
69895;DHT22;57172;52.034;5.090;2022-12-29T01:23:57;11.20;81.80
69895;DHT22;57172;52.034;5.090;2022-12-29T01:26:24;11.10;82.30
69895;DHT22;57172;52.034;5.090;2022-12-29T01:28:51;11.10;82.50
69895;DHT22;57172;52.034;5.090;2022-12-29T01:31:18;11.00;83.10
69895;DHT22;57172;52.034;5.090;2022-12-29T01:33:45;11.00;83.40
69895;DHT22;57172;52.034;5.090;2022-12-29T01:36:14;11.00;84.00
69895;DHT22;57172;52.034;5.090;2022-12-29T01:38:41;10.90;84.60
69895;DHT22;57172;52.034;5.090;2022-12-29T01:41:10;10.90;84.80
69895;DHT22;57172;52.034;5.090;2022-12-29T01:48:54;10.90;85.10
69895;DHT22;57172;52.034;5.090;2022-12-29T01:51:23;10.90;84.80
69895;DHT22;57172;52.034;5.090;2022-12-29T01:53:52;10.90;84.70
69895;DHT22;57172;52.034;5.090;2022-12-29T01:56:21;10.90;84.60
69895;DHT22;57172;52.034;5.090;2022-12-29T01:58:52;11.00;84.60
69895;DHT22;57172;52.034;5.090;2022-12-29T02:01:21;11.00;84.40
69895;DHT22;57172;52.034;5.090;2022-12-29T02:03:49;11.00;84.40
69895;DHT22;57172;52.034;5.090;2022-12-29T02:06:31;11.10;84.10
69895;DHT22;57172;52.034;5.090;2022-12-29T02:08:59;11.10;84.00
69895;DHT22;57172;52.034;5.090;2022-12-29T02:11:28;11.20;83.80
69895;DHT22;57172;52.034;5.090;2022-12-29T02:13:56;11.20;83.40
69895;DHT22;57172;52.034;5.090;2022-12-29T02:19:14;11.30;82.80
69895;DHT22;57172;52.034;5.090;2022-12-29T02:27:56;11.30;82.00
69895;DHT22;57172;52.034;5.090;2022-12-29T02:33:51;11.30;80.90
69895;DHT22;57172;52.034;5.090;2022-12-29T02:39:21;11.40;79.60
69895;DHT22;57172;52.034;5.090;2022-12-29T02:45:05;11.50;79.20
69895;DHT22;57172;52.034;5.090;2022-12-29T02:50:39;11.50;78.80
69895;DHT22;57172;52.034;5.090;2022-12-29T02:53:16;11.40;78.70
69895;DHT22;57172;52.034;5.090;2022-12-29T02:55:51;11.40;78.90
69895;DHT22;57172;52.034;5.090;2022-12-29T02:58:22;11.40;78.70
69895;DHT22;57172;52.034;5.090;2022-12-29T03:01:06;11.40;78.80
69895;DHT22;57172;52.034;5.090;2022-12-29T03:03:48;11.40;78.90
69895;DHT22;57172;52.034;5.090;2022-12-29T03:06:40;11.40;78.90
69895;DHT22;57172;52.034;5.090;2022-12-29T03:11:57;11.40;78.70
69895;DHT22;57172;52.034;5.090;2022-12-29T03:14:47;11.40;78.60
69895;DHT22;57172;52.034;5.090;2022-12-29T03:20:10;11.40;78.30
69895;DHT22;57172;52.034;5.090;2022-12-29T03:22:43;11.40;78.40
69895;DHT22;57172;52.034;5.090;2022-12-29T03:25:23;11.30;78.30
69895;DHT22;57172;52.034;5.090;2022-12-29T03:28:01;11.30;78.40
69895;DHT22;57172;52.034;5.090;2022-12-29T03:30:33;11.30;78.30
69895;DHT22;57172;52.034;5.090;2022-12-29T03:33:04;11.20;78.40
69895;DHT22;57172;52.034;5.090;2022-12-29T03:35:35;11.20;78.50
69895;DHT22;57172;52.034;5.090;2022-12-29T03:38:23;11.20;78.50
69895;DHT22;57172;52.034;5.090;2022-12-29T03:40:57;11.20;78.30
69895;DHT22;57172;52.034;5.090;2022-12-29T03:43:27;11.20;78.30
69895;DHT22;57172;52.034;5.090;2022-12-29T03:45:55;11.20;78.40
69895;DHT22;57172;52.034;5.090;2022-12-29T03:48:22;11.10;78.30
69895;DHT22;57172;52.034;5.090;2022-12-29T03:50:50;11.10;78.50
69895;DHT22;57172;52.034;5.090;2022-12-29T03:53:18;11.10;78.50
69895;DHT22;57172;52.034;5.090;2022-12-29T03:55:45;11.00;78.50
69895;DHT22;57172;52.034;5.090;2022-12-29T03:58:12;11.00;78.60
69895;DHT22;57172;52.034;5.090;2022-12-29T04:00:59;10.90;78.80
69895;DHT22;57172;52.034;5.090;2022-12-29T04:03:26;10.90;79.00
69895;DHT22;57172;52.034;5.090;2022-12-29T04:05:53;10.80;79.10
69895;DHT22;57172;52.034;5.090;2022-12-29T04:08:20;10.80;79.30
69895;DHT22;57172;52.034;5.090;2022-12-29T04:10:48;10.80;79.40
69895;DHT22;57172;52.034;5.090;2022-12-29T04:13:19;10.80;79.30
69895;DHT22;57172;52.034;5.090;2022-12-29T04:15:46;10.90;79.30
69895;DHT22;57172;52.034;5.090;2022-12-29T04:18:13;10.90;79.00
69895;DHT22;57172;52.034;5.090;2022-12-29T04:20:40;10.90;78.40
69895;DHT22;57172;52.034;5.090;2022-12-29T04:23:28;10.90;78.00
69895;DHT22;57172;52.034;5.090;2022-12-29T04:25:55;11.00;77.50
69895;DHT22;57172;52.034;5.090;2022-12-29T04:28:22;11.00;76.80
69895;DHT22;57172;52.034;5.090;2022-12-29T04:31:03;11.10;76.20
69895;DHT22;57172;52.034;5.090;2022-12-29T04:33:34;11.10;75.90
69895;DHT22;57172;52.034;5.090;2022-12-29T04:36:02;11.10;75.30
69895;DHT22;57172;52.034;5.090;2022-12-29T04:38:29;11.10;74.90
69895;DHT22;57172;52.034;5.090;2022-12-29T04:40:59;11.20;74.90
69895;DHT22;57172;52.034;5.090;2022-12-29T04:43:27;11.20;74.90
69895;DHT22;57172;52.034;5.090;2022-12-29T04:46:27;11.10;74.60
69895;DHT22;57172;52.034;5.090;2022-12-29T04:49:17;11.10;74.40
69895;DHT22;57172;52.034;5.090;2022-12-29T04:51:53;11.10;74.60
69895;DHT22;57172;52.034;5.090;2022-12-29T04:54:19;11.10;74.90
69895;DHT22;57172;52.034;5.090;2022-12-29T04:56:54;11.00;75.20
69895;DHT22;57172;52.034;5.090;2022-12-29T04:59:21;11.00;75.30
69895;DHT22;57172;52.034;5.090;2022-12-29T05:01:50;10.90;75.00
69895;DHT22;57172;52.034;5.090;2022-12-29T05:04:17;10.90;75.10
69895;DHT22;57172;52.034;5.090;2022-12-29T05:06:44;10.90;74.80
69895;DHT22;57172;52.034;5.090;2022-12-29T05:09:10;10.80;74.40
69895;DHT22;57172;52.034;5.090;2022-12-29T05:11:38;10.80;74.40
69895;DHT22;57172;52.034;5.090;2022-12-29T05:14:05;10.80;74.40
69895;DHT22;57172;52.034;5.090;2022-12-29T05:16:32;10.80;74.40
69895;DHT22;57172;52.034;5.090;2022-12-29T05:18:59;10.80;74.40
69895;DHT22;57172;52.034;5.090;2022-12-29T05:21:26;10.90;74.10
69895;DHT22;57172;52.034;5.090;2022-12-29T05:23:54;10.90;74.10
69895;DHT22;57172;52.034;5.090;2022-12-29T05:26:21;10.90;73.80
69895;DHT22;57172;52.034;5.090;2022-12-29T05:29:24;10.90;73.90
69895;DHT22;57172;52.034;5.090;2022-12-29T05:31:51;10.90;73.70
69895;DHT22;57172;52.034;5.090;2022-12-29T05:34:19;10.90;73.70
69895;DHT22;57172;52.034;5.090;2022-12-29T05:36:46;10.80;73.90
69895;DHT22;57172;52.034;5.090;2022-12-29T05:39:14;10.80;74.00
69895;DHT22;57172;52.034;5.090;2022-12-29T05:41:43;10.70;73.80
69895;DHT22;57172;52.034;5.090;2022-12-29T05:44:41;10.70;73.70
69895;DHT22;57172;52.034;5.090;2022-12-29T05:47:14;10.80;73.60
69895;DHT22;57172;52.034;5.090;2022-12-29T05:49:47;10.80;73.30
69895;DHT22;57172;52.034;5.090;2022-12-29T05:52:32;10.80;73.00
69895;DHT22;57172;52.034;5.090;2022-12-29T05:54:59;10.90;73.10
69895;DHT22;57172;52.034;5.090;2022-12-29T05:57:27;10.90;72.80
69895;DHT22;57172;52.034;5.090;2022-12-29T06:00:06;10.90;73.10
69895;DHT22;57172;52.034;5.090;2022-12-29T06:02:40;10.80;73.10
69895;DHT22;57172;52.034;5.090;2022-12-29T06:05:08;10.60;73.30
69895;DHT22;57172;52.034;5.090;2022-12-29T06:07:36;10.60;73.50
69895;DHT22;57172;52.034;5.090;2022-12-29T06:10:05;10.50;73.60
69895;DHT22;57172;52.034;5.090;2022-12-29T06:12:39;10.50;73.60
69895;DHT22;57172;52.034;5.090;2022-12-29T06:15:07;10.50;73.60
69895;DHT22;57172;52.034;5.090;2022-12-29T06:17:34;10.40;73.80
69895;DHT22;57172;52.034;5.090;2022-12-29T06:20:01;10.40;74.00
69895;DHT22;57172;52.034;5.090;2022-12-29T06:22:28;10.30;74.20
69895;DHT22;57172;52.034;5.090;2022-12-29T06:24:55;10.20;74.80
69895;DHT22;57172;52.034;5.090;2022-12-29T06:27:31;10.10;75.50
69895;DHT22;57172;52.034;5.090;2022-12-29T06:29:59;10.00;75.70
69895;DHT22;57172;52.034;5.090;2022-12-29T06:32:27;10.00;75.80
69895;DHT22;57172;52.034;5.090;2022-12-29T06:34:59;10.00;76.10
69895;DHT22;57172;52.034;5.090;2022-12-29T06:37:26;10.00;75.90
69895;DHT22;57172;52.034;5.090;2022-12-29T06:39:53;10.00;75.90
69895;DHT22;57172;52.034;5.090;2022-12-29T06:42:20;10.10;74.60
69895;DHT22;57172;52.034;5.090;2022-12-29T06:45:07;10.20;74.20
69895;DHT22;57172;52.034;5.090;2022-12-29T06:47:35;10.30;72.80
69895;DHT22;57172;52.034;5.090;2022-12-29T06:50:02;10.30;72.10
69895;DHT22;57172;52.034;5.090;2022-12-29T06:52:29;10.40;71.60
69895;DHT22;57172;52.034;5.090;2022-12-29T06:54:56;10.40;71.20
69895;DHT22;57172;52.034;5.090;2022-12-29T06:57:23;10.40;71.40
69895;DHT22;57172;52.034;5.090;2022-12-29T06:59:50;10.30;72.00
69895;DHT22;57172;52.034;5.090;2022-12-29T07:02:17;10.00;73.40
69895;DHT22;57172;52.034;5.090;2022-12-29T07:04:47;9.80;74.70
69895;DHT22;57172;52.034;5.090;2022-12-29T07:07:14;9.60;75.70
69895;DHT22;57172;52.034;5.090;2022-12-29T07:09:41;9.50;76.40
69895;DHT22;57172;52.034;5.090;2022-12-29T07:12:07;9.50;76.60
69895;DHT22;57172;52.034;5.090;2022-12-29T07:14:34;9.40;77.10
69895;DHT22;57172;52.034;5.090;2022-12-29T07:17:09;9.40;77.80
69895;DHT22;57172;52.034;5.090;2022-12-29T07:19:37;9.30;78.40
69895;DHT22;57172;52.034;5.090;2022-12-29T07:22:10;9.30;78.40
69895;DHT22;57172;52.034;5.090;2022-12-29T07:24:38;9.30;78.70
69895;DHT22;57172;52.034;5.090;2022-12-29T07:27:05;9.30;78.70
69895;DHT22;57172;52.034;5.090;2022-12-29T07:29:32;9.30;78.80
69895;DHT22;57172;52.034;5.090;2022-12-29T07:32:00;9.30;78.60
69895;DHT22;57172;52.034;5.090;2022-12-29T07:34:26;9.40;78.40
69895;DHT22;57172;52.034;5.090;2022-12-29T07:36:53;9.50;78.00
69895;DHT22;57172;52.034;5.090;2022-12-29T07:39:20;9.50;77.90
69895;DHT22;57172;52.034;5.090;2022-12-29T07:41:47;9.60;77.60
69895;DHT22;57172;52.034;5.090;2022-12-29T07:44:19;9.60;77.40
69895;DHT22;57172;52.034;5.090;2022-12-29T07:46:52;9.70;77.30
69895;DHT22;57172;52.034;5.090;2022-12-29T07:49:24;9.80;76.80
69895;DHT22;57172;52.034;5.090;2022-12-29T07:51:52;9.80;76.40
69895;DHT22;57172;52.034;5.090;2022-12-29T07:54:19;9.90;76.00
69895;DHT22;57172;52.034;5.090;2022-12-29T07:56:46;9.90;75.90
69895;DHT22;57172;52.034;5.090;2022-12-29T07:59:13;10.00;75.60
69895;DHT22;57172;52.034;5.090;2022-12-29T08:01:40;10.00;75.30
69895;DHT22;57172;52.034;5.090;2022-12-29T08:04:07;10.10;75.30
69895;DHT22;57172;52.034;5.090;2022-12-29T08:06:34;10.10;75.10
69895;DHT22;57172;52.034;5.090;2022-12-29T08:09:01;10.20;75.00
69895;DHT22;57172;52.034;5.090;2022-12-29T08:11:38;10.20;74.00
69895;DHT22;57172;52.034;5.090;2022-12-29T08:14:05;10.30;73.30
69895;DHT22;57172;52.034;5.090;2022-12-29T08:16:32;10.30;73.00
69895;DHT22;57172;52.034;5.090;2022-12-29T08:18:59;10.40;72.10
69895;DHT22;57172;52.034;5.090;2022-12-29T08:21:27;10.40;71.90
69895;DHT22;57172;52.034;5.090;2022-12-29T08:23:54;10.40;70.90
69895;DHT22;57172;52.034;5.090;2022-12-29T08:26:22;10.50;70.70
69895;DHT22;57172;52.034;5.090;2022-12-29T08:28:53;10.50;70.40
69895;DHT22;57172;52.034;5.090;2022-12-29T08:31:22;10.50;71.00
69895;DHT22;57172;52.034;5.090;2022-12-29T08:33:50;10.60;70.70
69895;DHT22;57172;52.034;5.090;2022-12-29T08:36:17;10.60;70.60
69895;DHT22;57172;52.034;5.090;2022-12-29T08:38:44;10.60;70.30
69895;DHT22;57172;52.034;5.090;2022-12-29T08:41:10;10.60;70.80
69895;DHT22;57172;52.034;5.090;2022-12-29T08:43:37;10.50;70.80
69895;DHT22;57172;52.034;5.090;2022-12-29T08:46:04;10.50;71.00
69895;DHT22;57172;52.034;5.090;2022-12-29T08:48:31;10.40;71.60
69895;DHT22;57172;52.034;5.090;2022-12-29T08:50:58;10.40;71.90
69895;DHT22;57172;52.034;5.090;2022-12-29T08:53:25;10.40;72.20
69895;DHT22;57172;52.034;5.090;2022-12-29T08:55:57;10.40;72.30
69895;DHT22;57172;52.034;5.090;2022-12-29T08:58:35;10.30;72.70
69895;DHT22;57172;52.034;5.090;2022-12-29T09:01:03;10.20;73.30
69895;DHT22;57172;52.034;5.090;2022-12-29T09:03:31;10.20;73.70
69895;DHT22;57172;52.034;5.090;2022-12-29T09:06:18;10.20;74.00
69895;DHT22;57172;52.034;5.090;2022-12-29T09:08:45;10.10;74.50
69895;DHT22;57172;52.034;5.090;2022-12-29T09:11:21;10.10;75.00
69895;DHT22;57172;52.034;5.090;2022-12-29T09:13:48;10.00;75.30
69895;DHT22;57172;52.034;5.090;2022-12-29T09:16:17;10.00;75.50
69895;DHT22;57172;52.034;5.090;2022-12-29T09:18:44;10.00;75.30
69895;DHT22;57172;52.034;5.090;2022-12-29T09:21:12;10.10;75.50
69895;DHT22;57172;52.034;5.090;2022-12-29T09:23:39;10.10;75.70
69895;DHT22;57172;52.034;5.090;2022-12-29T09:26:07;10.00;76.10
69895;DHT22;57172;52.034;5.090;2022-12-29T09:28:34;9.90;76.70
69895;DHT22;57172;52.034;5.090;2022-12-29T09:31:02;9.80;77.50
69895;DHT22;57172;52.034;5.090;2022-12-29T09:33:29;9.70;78.20
69895;DHT22;57172;52.034;5.090;2022-12-29T09:35:57;9.70;78.70
69895;DHT22;57172;52.034;5.090;2022-12-29T09:38:26;9.60;79.20
69895;DHT22;57172;52.034;5.090;2022-12-29T09:41:06;9.60;79.70
69895;DHT22;57172;52.034;5.090;2022-12-29T09:48:34;9.70;80.20
69895;DHT22;57172;52.034;5.090;2022-12-29T09:51:10;9.70;80.10
69895;DHT22;57172;52.034;5.090;2022-12-29T09:53:53;9.70;80.20
69895;DHT22;57172;52.034;5.090;2022-12-29T09:56:23;9.80;80.00
69895;DHT22;57172;52.034;5.090;2022-12-29T09:58:59;9.80;79.80
69895;DHT22;57172;52.034;5.090;2022-12-29T10:01:28;9.90;79.70
69895;DHT22;57172;52.034;5.090;2022-12-29T10:03:58;9.90;79.40
69895;DHT22;57172;52.034;5.090;2022-12-29T10:06:28;9.90;79.40
69895;DHT22;57172;52.034;5.090;2022-12-29T10:11:53;9.80;79.70
69895;DHT22;57172;52.034;5.090;2022-12-29T10:20:37;9.90;79.90
69895;DHT22;57172;52.034;5.090;2022-12-29T10:23:21;9.90;79.90
69895;DHT22;57172;52.034;5.090;2022-12-29T10:25:50;9.90;79.50
69895;DHT22;57172;52.034;5.090;2022-12-29T10:28:23;9.90;80.00
69895;DHT22;57172;52.034;5.090;2022-12-29T10:30:51;9.80;80.60
69895;DHT22;57172;52.034;5.090;2022-12-29T10:33:22;9.70;80.90
69895;DHT22;57172;52.034;5.090;2022-12-29T10:35:50;9.60;81.40
69895;DHT22;57172;52.034;5.090;2022-12-29T10:38:33;9.60;81.90
69895;DHT22;57172;52.034;5.090;2022-12-29T10:41:15;9.70;82.00
69895;DHT22;57172;52.034;5.090;2022-12-29T10:43:49;9.70;81.90
69895;DHT22;57172;52.034;5.090;2022-12-29T10:46:20;9.70;81.90
69895;DHT22;57172;52.034;5.090;2022-12-29T10:48:47;9.80;81.70
69895;DHT22;57172;52.034;5.090;2022-12-29T10:51:32;9.90;81.70
69895;DHT22;57172;52.034;5.090;2022-12-29T10:54:15;9.90;81.40
69895;DHT22;57172;52.034;5.090;2022-12-29T10:56:50;10.00;81.00
69895;DHT22;57172;52.034;5.090;2022-12-29T10:59:23;10.00;80.80
69895;DHT22;57172;52.034;5.090;2022-12-29T11:02:20;10.10;80.60
69895;DHT22;57172;52.034;5.090;2022-12-29T11:05:52;10.10;80.60
69895;DHT22;57172;52.034;5.090;2022-12-29T11:08:03;10.20;80.60
69895;DHT22;57172;52.034;5.090;2022-12-29T11:15:45;10.90;81.30
69895;DHT22;57172;52.034;5.090;2022-12-29T11:18:23;11.10;78.50
69895;DHT22;57172;52.034;5.090;2022-12-29T11:20:54;11.10;76.80
69895;DHT22;57172;52.034;5.090;2022-12-29T11:23:35;11.00;76.30
69895;DHT22;57172;52.034;5.090;2022-12-29T11:26:21;10.80;76.30
69895;DHT22;57172;52.034;5.090;2022-12-29T11:31:44;10.50;76.50
69895;DHT22;57172;52.034;5.090;2022-12-29T11:36:47;10.40;76.70
69895;DHT22;57172;52.034;5.090;2022-12-29T11:42:17;10.40;77.10
69895;DHT22;57172;52.034;5.090;2022-12-29T11:44:46;10.50;77.10
69895;DHT22;57172;52.034;5.090;2022-12-29T11:47:23;10.50;77.10
69895;DHT22;57172;52.034;5.090;2022-12-29T11:49:55;10.50;77.30
69895;DHT22;57172;52.034;5.090;2022-12-29T11:52:24;10.60;77.70
69895;DHT22;57172;52.034;5.090;2022-12-29T11:54:53;10.70;78.30
69895;DHT22;57172;52.034;5.090;2022-12-29T11:57:21;10.90;79.80
69895;DHT22;57172;52.034;5.090;2022-12-29T11:59:55;11.50;79.30
69895;DHT22;57172;52.034;5.090;2022-12-29T12:02:47;12.00;79.90
69895;DHT22;57172;52.034;5.090;2022-12-29T12:05:41;12.30;74.20
69895;DHT22;57172;52.034;5.090;2022-12-29T12:08:18;12.20;73.20
69895;DHT22;57172;52.034;5.090;2022-12-29T12:10:58;12.10;72.50
69895;DHT22;57172;52.034;5.090;2022-12-29T12:13:34;12.00;74.60
69895;DHT22;57172;52.034;5.090;2022-12-29T12:16:15;12.40;77.50
69895;DHT22;57172;52.034;5.090;2022-12-29T12:18:52;12.70;72.80
69895;DHT22;57172;52.034;5.090;2022-12-29T12:21:41;12.70;71.40
69895;DHT22;57172;52.034;5.090;2022-12-29T12:24:15;12.60;70.30
69895;DHT22;57172;52.034;5.090;2022-12-29T12:27:01;12.40;70.30
69895;DHT22;57172;52.034;5.090;2022-12-29T12:29:37;12.20;71.10
69895;DHT22;57172;52.034;5.090;2022-12-29T12:34:50;11.90;72.00
69895;DHT22;57172;52.034;5.090;2022-12-29T12:37:52;11.80;72.10
69895;DHT22;57172;52.034;5.090;2022-12-29T12:57:28;12.10;70.70
69895;DHT22;57172;52.034;5.090;2022-12-29T13:00:16;12.30;72.10
69895;DHT22;57172;52.034;5.090;2022-12-29T13:08:44;12.30;69.70
69895;DHT22;57172;52.034;5.090;2022-12-29T13:17:36;11.90;70.60
69895;DHT22;57172;52.034;5.090;2022-12-29T13:25:49;11.50;71.20
69895;DHT22;57172;52.034;5.090;2022-12-29T13:33:41;11.30;72.30
69895;DHT22;57172;52.034;5.090;2022-12-29T13:36:36;11.30;72.60
69895;DHT22;57172;52.034;5.090;2022-12-29T13:41:57;11.20;73.10
69895;DHT22;57172;52.034;5.090;2022-12-29T13:49:44;11.10;72.70
69895;DHT22;57172;52.034;5.090;2022-12-29T13:52:36;11.00;72.30
69895;DHT22;57172;52.034;5.090;2022-12-29T13:55:32;10.90;71.70
69895;DHT22;57172;52.034;5.090;2022-12-29T14:01:43;10.30;73.40
69895;DHT22;57172;52.034;5.090;2022-12-29T14:03:51;10.00;75.10
69895;DHT22;57172;52.034;5.090;2022-12-29T14:08:55;9.60;77.30
69895;DHT22;57172;52.034;5.090;2022-12-29T14:11:30;9.50;77.70
69895;DHT22;57172;52.034;5.090;2022-12-29T14:13:57;9.50;77.70
69895;DHT22;57172;52.034;5.090;2022-12-29T14:16:31;9.50;77.70
69895;DHT22;57172;52.034;5.090;2022-12-29T14:19:29;9.40;77.60
69895;DHT22;57172;52.034;5.090;2022-12-29T14:22:04;9.40;77.90
69895;DHT22;57172;52.034;5.090;2022-12-29T14:34:54;8.70;82.10
69895;DHT22;57172;52.034;5.090;2022-12-29T14:37:34;8.80;82.30
69895;DHT22;57172;52.034;5.090;2022-12-29T14:42:48;8.80;82.80
69895;DHT22;57172;52.034;5.090;2022-12-29T14:47:48;8.90;83.10
69895;DHT22;57172;52.034;5.090;2022-12-29T14:52:57;8.90;83.30
69895;DHT22;57172;52.034;5.090;2022-12-29T14:55:43;9.00;83.20
69895;DHT22;57172;52.034;5.090;2022-12-29T14:58:29;9.00;83.10
69895;DHT22;57172;52.034;5.090;2022-12-29T15:00:57;9.10;82.70
69895;DHT22;57172;52.034;5.090;2022-12-29T15:03:43;9.20;82.30
69895;DHT22;57172;52.034;5.090;2022-12-29T15:06:13;9.20;82.00
69895;DHT22;57172;52.034;5.090;2022-12-29T15:11:55;9.30;81.30
69895;DHT22;57172;52.034;5.090;2022-12-29T15:14:32;9.40;81.10
69895;DHT22;57172;52.034;5.090;2022-12-29T15:17:00;9.40;80.90
69895;DHT22;57172;52.034;5.090;2022-12-29T15:19:28;9.40;80.80
69895;DHT22;57172;52.034;5.090;2022-12-29T15:21:56;9.50;80.80
69895;DHT22;57172;52.034;5.090;2022-12-29T15:24:23;9.50;80.70
69895;DHT22;57172;52.034;5.090;2022-12-29T15:26:52;9.50;80.60
69895;DHT22;57172;52.034;5.090;2022-12-29T15:29:41;9.50;80.40
69895;DHT22;57172;52.034;5.090;2022-12-29T15:32:22;9.60;79.90
69895;DHT22;57172;52.034;5.090;2022-12-29T15:34:54;9.50;79.80
69895;DHT22;57172;52.034;5.090;2022-12-29T15:37:32;9.50;79.70
69895;DHT22;57172;52.034;5.090;2022-12-29T15:40:00;9.50;79.60
69895;DHT22;57172;52.034;5.090;2022-12-29T15:42:50;9.60;79.40
69895;DHT22;57172;52.034;5.090;2022-12-29T15:45:19;9.60;79.20
69895;DHT22;57172;52.034;5.090;2022-12-29T15:47:47;9.60;79.00
69895;DHT22;57172;52.034;5.090;2022-12-29T15:50:28;9.60;78.70
69895;DHT22;57172;52.034;5.090;2022-12-29T15:52:56;9.60;78.60
69895;DHT22;57172;52.034;5.090;2022-12-29T15:55:34;9.50;78.50
69895;DHT22;57172;52.034;5.090;2022-12-29T15:58:04;9.50;78.40
69895;DHT22;57172;52.034;5.090;2022-12-29T16:00:33;9.50;78.10
69895;DHT22;57172;52.034;5.090;2022-12-29T16:03:02;9.50;77.90
69895;DHT22;57172;52.034;5.090;2022-12-29T16:05:34;9.60;77.90
69895;DHT22;57172;52.034;5.090;2022-12-29T16:08:02;9.60;77.40
69895;DHT22;57172;52.034;5.090;2022-12-29T16:11:04;9.60;77.40
69895;DHT22;57172;52.034;5.090;2022-12-29T16:13:38;9.60;77.30
69895;DHT22;57172;52.034;5.090;2022-12-29T16:16:16;9.50;76.60
69895;DHT22;57172;52.034;5.090;2022-12-29T16:18:44;9.50;76.30
69895;DHT22;57172;52.034;5.090;2022-12-29T16:21:32;9.50;76.20
69895;DHT22;57172;52.034;5.090;2022-12-29T16:24:02;9.40;75.70
69895;DHT22;57172;52.034;5.090;2022-12-29T16:26:31;9.40;75.90
69895;DHT22;57172;52.034;5.090;2022-12-29T16:29:00;9.30;75.90
69895;DHT22;57172;52.034;5.090;2022-12-29T16:31:35;9.30;75.80
69895;DHT22;57172;52.034;5.090;2022-12-29T16:37:30;9.20;75.80
69895;DHT22;57172;52.034;5.090;2022-12-29T16:42:46;9.10;75.80
69895;DHT22;57172;52.034;5.090;2022-12-29T16:50:42;8.90;75.90
69895;DHT22;57172;52.034;5.090;2022-12-29T16:53:23;8.90;75.90
69895;DHT22;57172;52.034;5.090;2022-12-29T16:55:52;8.90;76.00
69895;DHT22;57172;52.034;5.090;2022-12-29T16:58:22;8.90;76.00
69895;DHT22;57172;52.034;5.090;2022-12-29T17:00:56;8.90;76.10
69895;DHT22;57172;52.034;5.090;2022-12-29T17:03:31;8.90;76.10
69895;DHT22;57172;52.034;5.090;2022-12-29T17:05:59;8.90;76.10
69895;DHT22;57172;52.034;5.090;2022-12-29T17:08:26;8.80;75.90
69895;DHT22;57172;52.034;5.090;2022-12-29T17:10:55;8.80;75.70
69895;DHT22;57172;52.034;5.090;2022-12-29T17:13:41;8.80;75.60
69895;DHT22;57172;52.034;5.090;2022-12-29T17:16:10;8.80;75.40
69895;DHT22;57172;52.034;5.090;2022-12-29T17:18:38;8.80;75.30
69895;DHT22;57172;52.034;5.090;2022-12-29T17:21:05;8.80;75.10
69895;DHT22;57172;52.034;5.090;2022-12-29T17:23:33;8.80;75.10
69895;DHT22;57172;52.034;5.090;2022-12-29T17:26:01;8.80;74.90
69895;DHT22;57172;52.034;5.090;2022-12-29T17:28:30;8.80;74.70
69895;DHT22;57172;52.034;5.090;2022-12-29T17:31:03;8.80;74.80
69895;DHT22;57172;52.034;5.090;2022-12-29T17:33:37;8.70;74.80
69895;DHT22;57172;52.034;5.090;2022-12-29T17:36:05;8.70;74.80
69895;DHT22;57172;52.034;5.090;2022-12-29T17:38:34;8.70;74.50
69895;DHT22;57172;52.034;5.090;2022-12-29T17:41:03;8.70;74.40
69895;DHT22;57172;52.034;5.090;2022-12-29T17:43:30;8.70;74.30
69895;DHT22;57172;52.034;5.090;2022-12-29T17:46:05;8.70;74.20
69895;DHT22;57172;52.034;5.090;2022-12-29T17:48:32;8.60;74.20
69895;DHT22;57172;52.034;5.090;2022-12-29T17:50:59;8.60;73.90
69895;DHT22;57172;52.034;5.090;2022-12-29T17:53:28;8.60;74.00
69895;DHT22;57172;52.034;5.090;2022-12-29T17:55:56;8.60;73.90
69895;DHT22;57172;52.034;5.090;2022-12-29T17:58:25;8.60;73.90
69895;DHT22;57172;52.034;5.090;2022-12-29T18:00:54;8.50;73.80
69895;DHT22;57172;52.034;5.090;2022-12-29T18:03:37;8.50;73.90
69895;DHT22;57172;52.034;5.090;2022-12-29T18:06:06;8.60;73.90
69895;DHT22;57172;52.034;5.090;2022-12-29T18:08:34;8.50;73.90
69895;DHT22;57172;52.034;5.090;2022-12-29T18:11:01;8.50;74.00
69895;DHT22;57172;52.034;5.090;2022-12-29T18:13:31;8.50;74.10
69895;DHT22;57172;52.034;5.090;2022-12-29T18:16:12;8.50;74.00
69895;DHT22;57172;52.034;5.090;2022-12-29T18:18:39;8.50;74.20
69895;DHT22;57172;52.034;5.090;2022-12-29T18:21:15;8.40;74.10
69895;DHT22;57172;52.034;5.090;2022-12-29T18:23:42;8.40;74.10
69895;DHT22;57172;52.034;5.090;2022-12-29T18:26:24;8.40;74.10
69895;DHT22;57172;52.034;5.090;2022-12-29T18:28:55;8.40;74.10
69895;DHT22;57172;52.034;5.090;2022-12-29T18:31:32;8.40;74.00
69895;DHT22;57172;52.034;5.090;2022-12-29T18:34:01;8.40;74.10
69895;DHT22;57172;52.034;5.090;2022-12-29T18:36:28;8.40;74.20
69895;DHT22;57172;52.034;5.090;2022-12-29T18:38:55;8.40;74.20
69895;DHT22;57172;52.034;5.090;2022-12-29T18:41:23;8.40;74.30